createdAt,value
2023-02-08T00:01:27.236Z,12.77
2023-02-08T00:03:53.913Z,14.93
2023-02-08T00:06:20.427Z,14.70
2023-02-08T00:08:46.941Z,15.03
2023-02-08T00:11:13.508Z,15.60
2023-02-08T00:13:42.209Z,13.90
2023-02-08T00:16:09.360Z,15.30
2023-02-08T00:18:35.862Z,15.40
2023-02-08T00:21:10.654Z,13.90
2023-02-08T00:23:37.361Z,15.23
2023-02-08T00:26:04.169Z,14.90
2023-02-08T00:28:30.951Z,15.20
2023-02-08T00:30:57.820Z,14.50
2023-02-08T00:33:24.516Z,14.30
2023-02-08T00:35:51.795Z,15.30
2023-02-08T00:38:18.281Z,14.53
2023-02-08T00:40:44.743Z,15.00
2023-02-08T00:43:11.742Z,14.73
2023-02-08T00:45:38.362Z,15.53
2023-02-08T00:48:04.813Z,16.27
2023-02-08T00:50:31.306Z,15.17
2023-02-08T00:52:59.606Z,16.07
2023-02-08T00:55:26.050Z,16.20
2023-02-08T00:57:52.478Z,15.90
2023-02-08T01:00:19.083Z,16.33
2023-02-08T01:02:45.576Z,16.57
2023-02-08T01:05:12.738Z,17.20
2023-02-08T01:07:39.450Z,16.57
2023-02-08T01:10:07.274Z,16.60
2023-02-08T01:12:33.710Z,15.70
2023-02-08T01:15:00.188Z,17.27
2023-02-08T01:17:26.714Z,17.00
2023-02-08T01:19:53.449Z,16.50
2023-02-08T01:22:19.963Z,15.60
2023-02-08T01:24:46.430Z,15.97
2023-02-08T01:27:12.988Z,16.80
2023-02-08T01:29:39.435Z,15.40
2023-02-08T01:32:06.098Z,16.67
2023-02-08T01:34:32.585Z,15.20
2023-02-08T01:36:59.108Z,16.87
2023-02-08T01:39:25.600Z,15.60
2023-02-08T01:41:52.118Z,14.27
2023-02-08T01:44:18.562Z,14.87
2023-02-08T01:46:48.604Z,15.20
2023-02-08T01:49:20.541Z,15.00
2023-02-08T01:51:54.847Z,14.87
2023-02-08T01:54:24.129Z,14.93
2023-02-08T01:56:50.934Z,15.97
2023-02-08T01:59:22.827Z,17.23
2023-02-08T02:01:51.434Z,17.87
2023-02-08T02:04:18.057Z,17.53
2023-02-08T02:06:47.115Z,17.37
2023-02-08T02:09:36.245Z,16.57
2023-02-08T02:12:02.715Z,16.83
2023-02-08T02:14:29.303Z,16.57
2023-02-08T02:16:55.868Z,18.27
2023-02-08T02:19:30.882Z,17.90
2023-02-08T02:22:10.905Z,19.10
2023-02-08T02:25:09.533Z,18.73
2023-02-08T02:27:45.649Z,17.83
2023-02-08T02:30:37.312Z,19.43
2023-02-08T02:33:31.910Z,19.53
2023-02-08T02:36:35.383Z,20.73
2023-02-08T02:39:23.614Z,33.23
2023-02-08T02:42:19.971Z,20.33
2023-02-08T02:44:58.522Z,18.30
2023-02-08T02:47:31.729Z,19.37
2023-02-08T02:50:10.160Z,17.37
2023-02-08T02:52:48.686Z,17.23
2023-02-08T02:55:17.414Z,18.37
2023-02-08T02:57:45.090Z,17.70
2023-02-08T03:00:13.930Z,17.07
2023-02-08T03:02:40.421Z,16.30
2023-02-08T03:05:09.639Z,15.67
2023-02-08T03:07:50.433Z,16.20
2023-02-08T03:10:22.780Z,16.50
2023-02-08T03:12:59.589Z,15.40
2023-02-08T03:15:34.666Z,13.87
2023-02-08T03:18:13.018Z,14.93
2023-02-08T03:20:50.076Z,14.30
2023-02-08T03:23:30.548Z,15.67
2023-02-08T03:26:08.280Z,14.80
2023-02-08T03:29:03.278Z,13.70
2023-02-08T03:31:40.061Z,14.10
2023-02-08T03:34:12.908Z,15.17
2023-02-08T03:37:31.025Z,14.83
2023-02-08T03:40:36.327Z,13.70
2023-02-08T03:43:08.843Z,14.63
2023-02-08T03:45:42.392Z,14.23
2023-02-08T03:48:11.017Z,15.00
2023-02-08T03:50:39.941Z,14.93
2023-02-08T03:53:07.735Z,14.30
2023-02-08T03:55:35.803Z,14.23
2023-02-08T03:58:19.762Z,14.53
2023-02-08T04:00:52.277Z,14.83
2023-02-08T04:03:27.462Z,14.40
2023-02-08T04:05:54.460Z,14.50
2023-02-08T04:08:21.899Z,14.23
2023-02-08T04:10:48.951Z,15.07
2023-02-08T04:13:15.598Z,15.10
2023-02-08T04:15:42.140Z,15.10
2023-02-08T04:18:08.702Z,14.97
2023-02-08T04:20:35.195Z,15.37
2023-02-08T04:23:01.668Z,16.03
2023-02-08T04:25:28.497Z,15.07
2023-02-08T04:27:55.035Z,15.50
2023-02-08T04:30:21.505Z,16.60
2023-02-08T04:32:48.112Z,15.60
2023-02-08T04:35:14.719Z,15.47
2023-02-08T04:37:41.179Z,14.10
2023-02-08T04:40:08.113Z,15.13
2023-02-08T04:42:35.249Z,15.67
2023-02-08T04:45:01.744Z,15.20
2023-02-08T04:47:28.399Z,15.77
2023-02-08T04:49:54.825Z,16.07
2023-02-08T04:52:21.269Z,15.00
2023-02-08T04:54:47.701Z,15.70
2023-02-08T04:57:14.332Z,15.80
2023-02-08T04:59:40.854Z,15.00
2023-02-08T05:02:07.342Z,14.77
2023-02-08T05:04:34.093Z,15.70
2023-02-08T05:07:00.536Z,14.53
2023-02-08T05:09:27.075Z,15.23
2023-02-08T05:11:53.518Z,15.17
2023-02-08T05:14:20.064Z,15.60
2023-02-08T05:16:46.545Z,16.00
2023-02-08T05:19:13.467Z,16.40
2023-02-08T05:21:39.971Z,16.37
2023-02-08T05:24:07.191Z,16.83
2023-02-08T05:26:33.665Z,16.40
2023-02-08T05:29:00.165Z,18.50
2023-02-08T05:31:26.941Z,17.10
2023-02-08T05:33:53.658Z,16.70
2023-02-08T05:36:23.188Z,15.60
2023-02-08T05:38:50.012Z,15.70
2023-02-08T05:41:17.191Z,16.37
2023-02-08T05:43:43.642Z,19.83
2023-02-08T05:46:10.096Z,17.63
2023-02-08T05:48:36.758Z,17.07
2023-02-08T05:51:03.616Z,17.13
2023-02-08T05:53:30.520Z,17.07
2023-02-08T05:56:00.128Z,17.03
2023-02-08T05:58:26.943Z,17.10
2023-02-08T06:00:53.528Z,17.90
2023-02-08T06:03:20.092Z,18.13
2023-02-08T06:05:46.678Z,17.37
2023-02-08T06:08:13.237Z,17.50
2023-02-08T06:10:40.084Z,18.37
2023-02-08T06:13:06.760Z,19.23
2023-02-08T06:15:33.229Z,18.93
2023-02-08T06:17:59.791Z,18.97
2023-02-08T06:20:26.470Z,18.73
2023-02-08T06:22:53.138Z,19.43
2023-02-08T06:25:19.651Z,18.83
2023-02-08T06:27:46.325Z,19.30
2023-02-08T06:30:13.372Z,19.50
2023-02-08T06:32:39.906Z,20.87
2023-02-08T06:35:07.072Z,20.30
2023-02-08T06:37:33.950Z,19.30
2023-02-08T06:40:01.966Z,21.03
2023-02-08T06:42:28.584Z,19.27
2023-02-08T06:44:56.076Z,19.60
2023-02-08T06:47:23.308Z,20.10
2023-02-08T06:49:50.246Z,20.33
2023-02-08T06:52:16.958Z,20.97
2023-02-08T06:54:43.424Z,20.60
2023-02-08T06:57:12.914Z,21.07
2023-02-08T06:59:40.314Z,21.43
2023-02-08T07:02:14.036Z,21.90
2023-02-08T07:04:40.621Z,22.23
2023-02-08T07:07:07.595Z,21.93
2023-02-08T07:09:35.208Z,22.30
2023-02-08T07:12:05.328Z,23.00
2023-02-08T07:14:37.163Z,21.97
2023-02-08T07:17:03.840Z,21.20
2023-02-08T07:19:30.525Z,22.40
2023-02-08T07:21:57.443Z,22.03
2023-02-08T07:24:24.156Z,21.17
2023-02-08T07:26:50.731Z,22.67
2023-02-08T07:29:17.245Z,24.53
2023-02-08T07:31:43.752Z,22.83
2023-02-08T07:34:10.256Z,23.40
2023-02-08T07:36:36.844Z,24.00
2023-02-08T07:39:03.540Z,23.17
2023-02-08T07:41:30.076Z,21.40
2023-02-08T07:43:56.510Z,19.80
2023-02-08T07:46:23.715Z,17.53
2023-02-08T07:48:50.329Z,18.03
2023-02-08T07:51:16.976Z,15.83
2023-02-08T07:53:43.509Z,15.77
2023-02-08T07:56:10.476Z,15.50
2023-02-08T07:58:37.506Z,16.30
2023-02-08T08:01:19.507Z,16.13
2023-02-08T08:03:48.749Z,15.37
2023-02-08T08:06:15.287Z,15.83
2023-02-08T08:08:42.354Z,15.80
2023-02-08T08:11:08.955Z,15.97
2023-02-08T08:13:35.409Z,16.60
2023-02-08T08:16:01.986Z,15.87
2023-02-08T08:18:29.247Z,15.70
2023-02-08T08:20:55.726Z,15.10
2023-02-08T08:23:23.899Z,15.93
2023-02-08T08:25:50.432Z,16.30
2023-02-08T08:28:17.137Z,17.30
2023-02-08T08:30:44.687Z,18.33
2023-02-08T08:33:14.070Z,18.37
2023-02-08T08:35:41.172Z,18.53
2023-02-08T08:38:07.634Z,18.60
2023-02-08T08:40:34.251Z,20.23
2023-02-08T08:43:00.761Z,19.73
2023-02-08T08:45:27.401Z,20.07
2023-02-08T08:47:54.028Z,21.23
2023-02-08T08:50:20.492Z,21.20
2023-02-08T08:52:46.932Z,20.13
2023-02-08T08:55:13.519Z,20.20
2023-02-08T08:57:39.979Z,21.27
2023-02-08T09:00:06.799Z,21.53
2023-02-08T09:02:33.319Z,23.00
2023-02-08T09:05:00.312Z,20.23
2023-02-08T09:07:26.927Z,20.57
2023-02-08T09:09:53.393Z,21.07
2023-02-08T09:12:19.889Z,21.77
2023-02-08T09:14:46.412Z,21.10
2023-02-08T09:17:13.039Z,20.70
2023-02-08T09:19:39.592Z,20.90
2023-02-08T09:22:07.351Z,19.97
2023-02-08T09:24:34.504Z,19.53
2023-02-08T09:27:01.335Z,18.73
2023-02-08T09:29:30.159Z,19.33
2023-02-08T09:31:57.266Z,18.03
2023-02-08T09:34:24.247Z,18.90
2023-02-08T09:36:50.749Z,19.63
2023-02-08T09:39:20.378Z,18.93
2023-02-08T09:42:08.850Z,19.03
2023-02-08T09:44:47.222Z,19.83
2023-02-08T09:47:29.514Z,20.03
2023-02-08T09:50:04.011Z,20.60
2023-02-08T09:52:39.188Z,19.93
2023-02-08T09:55:29.096Z,20.37
2023-02-08T09:57:58.354Z,20.37
2023-02-08T10:00:51.647Z,20.90
2023-02-08T10:03:30.282Z,21.93
2023-02-08T10:05:57.201Z,20.03
2023-02-08T10:08:34.367Z,20.73
2023-02-08T10:11:13.275Z,19.43
2023-02-08T10:13:45.201Z,21.17
2023-02-08T10:16:49.089Z,21.90
2023-02-08T10:19:38.211Z,19.60
2023-02-08T10:22:16.405Z,17.93
2023-02-08T10:25:04.460Z,17.70
2023-02-08T10:27:54.402Z,19.50
2023-02-08T10:30:31.611Z,19.17
2023-02-08T10:33:02.013Z,19.33
2023-02-08T10:35:37.257Z,18.57
2023-02-08T10:38:23.394Z,17.70
2023-02-08T10:40:56.790Z,20.00
2023-02-08T10:43:37.238Z,19.63
2023-02-08T10:46:09.882Z,16.67
2023-02-08T10:48:46.978Z,16.33
2023-02-08T10:51:17.894Z,16.87
2023-02-08T10:53:44.854Z,16.90
2023-02-08T10:56:29.718Z,18.03
2023-02-08T10:59:00.501Z,16.60
2023-02-08T11:01:27.931Z,17.97
2023-02-08T11:04:12.078Z,17.03
2023-02-08T11:06:40.622Z,17.20
2023-02-08T11:09:13.154Z,16.93
2023-02-08T11:11:41.161Z,16.70
2023-02-08T11:14:19.525Z,17.30
2023-02-08T11:16:54.147Z,15.83
2023-02-08T11:19:35.366Z,15.50
2023-02-08T11:22:05.736Z,16.07
2023-02-08T11:24:40.027Z,19.20
2023-02-08T11:27:28.866Z,18.97
2023-02-08T11:30:15.823Z,16.73
2023-02-08T11:32:44.255Z,17.97
2023-02-08T11:35:23.747Z,18.90
2023-02-08T11:37:54.667Z,11.40
2023-02-08T11:40:25.002Z,12.50
2023-02-08T11:42:51.729Z,14.07
2023-02-08T11:45:36.314Z,11.47
2023-02-08T11:48:05.014Z,10.80
2023-02-08T11:50:34.811Z,6.17
2023-02-08T11:53:06.522Z,4.50
2023-02-08T11:55:34.554Z,4.63
2023-02-08T11:58:09.536Z,4.60
2023-02-08T12:00:37.393Z,5.57
2023-02-08T12:03:06.885Z,7.37
2023-02-08T12:05:49.870Z,6.83
2023-02-08T12:08:29.237Z,7.87
2023-02-08T12:11:14.190Z,7.73
2023-02-08T12:13:46.764Z,7.47
2023-02-08T12:16:22.045Z,7.87
2023-02-08T12:18:52.734Z,8.23
2023-02-08T12:21:23.253Z,7.27
2023-02-08T12:23:55.847Z,7.93
2023-02-08T12:26:37.495Z,6.53
2023-02-08T12:29:48.009Z,6.60
2023-02-08T12:32:20.732Z,6.23
2023-02-08T12:35:33.054Z,5.43
2023-02-08T12:38:57.209Z,4.67
2023-02-08T12:41:36.233Z,3.90
2023-02-08T12:44:08.756Z,3.30
2023-02-08T12:46:49.069Z,3.70
2023-02-08T12:49:41.871Z,3.50
2023-02-08T12:52:24.303Z,3.53
2023-02-08T12:54:58.205Z,3.00
2023-02-08T12:57:27.105Z,3.63
2023-02-08T13:00:23.798Z,2.93
2023-02-08T13:03:16.425Z,3.30
2023-02-08T13:06:01.265Z,3.50
2023-02-08T13:08:40.677Z,3.03
2023-02-08T13:11:37.237Z,3.20
2023-02-08T13:14:13.507Z,3.57
2023-02-08T13:16:46.040Z,3.53
2023-02-08T13:19:33.651Z,3.30
2023-02-08T13:22:00.685Z,3.00
2023-02-08T13:24:41.866Z,3.20
2023-02-08T13:27:16.159Z,4.47
2023-02-08T13:29:47.144Z,3.80
2023-02-08T13:32:22.417Z,3.30
2023-02-08T13:34:53.130Z,3.83
2023-02-08T13:37:30.262Z,3.60
2023-02-08T13:40:17.392Z,3.53
2023-02-08T13:42:49.144Z,3.70
2023-02-08T13:45:39.929Z,4.47
2023-02-08T13:48:08.652Z,4.07
2023-02-08T13:50:35.307Z,4.33
2023-02-08T13:53:02.965Z,4.10
2023-02-08T13:55:33.571Z,4.77
2023-02-08T13:58:16.196Z,4.90
2023-02-08T14:01:08.824Z,4.80
2023-02-08T14:03:35.482Z,4.97
2023-02-08T14:06:05.725Z,4.80
2023-02-08T14:09:07.123Z,5.30
2023-02-08T14:11:41.136Z,5.90
2023-02-08T14:14:17.641Z,4.80
2023-02-08T14:17:20.175Z,5.07
2023-02-08T14:19:57.227Z,6.13
2023-02-08T14:22:23.821Z,5.27
2023-02-08T14:25:01.858Z,6.17
2023-02-08T14:27:53.588Z,5.50
2023-02-08T14:30:22.234Z,5.73
2023-02-08T14:32:51.492Z,5.97
2023-02-08T14:35:22.887Z,5.90
2023-02-08T14:37:52.172Z,6.00
2023-02-08T14:40:22.462Z,6.57
2023-02-08T14:43:03.911Z,6.40
2023-02-08T14:45:39.209Z,8.00
2023-02-08T14:48:11.990Z,7.87
2023-02-08T14:50:51.187Z,7.97
2023-02-08T14:53:52.409Z,6.50
2023-02-08T14:56:31.601Z,7.43
2023-02-08T14:59:09.546Z,7.43
2023-02-08T15:01:44.943Z,7.33
2023-02-08T15:04:15.580Z,7.73
2023-02-08T15:07:40.868Z,6.80
2023-02-08T15:10:15.860Z,6.57
2023-02-08T15:12:45.697Z,6.90
2023-02-08T15:15:33.420Z,7.63
2023-02-08T15:18:01.657Z,7.13
2023-02-08T15:20:33.208Z,8.50
2023-02-08T15:23:07.219Z,7.30
2023-02-08T15:25:36.407Z,7.87
2023-02-08T15:28:15.058Z,7.43
2023-02-08T15:30:42.808Z,8.30
2023-02-08T15:33:14.573Z,7.57
2023-02-08T15:35:42.622Z,9.33
2023-02-08T15:38:27.676Z,8.00
2023-02-08T15:41:03.448Z,9.37
2023-02-08T15:43:30.507Z,8.57
2023-02-08T15:45:58.463Z,8.70
2023-02-08T15:48:25.890Z,8.77
2023-02-08T15:50:53.832Z,7.60
2023-02-08T15:53:20.835Z,8.07
2023-02-08T15:55:49.796Z,8.50
2023-02-08T15:58:28.569Z,9.63
2023-02-08T16:00:57.346Z,9.57
2023-02-08T16:03:24.683Z,9.53
2023-02-08T16:05:54.205Z,10.33
2023-02-08T16:08:23.682Z,10.77
2023-02-08T16:10:54.756Z,9.83
2023-02-08T16:13:27.701Z,10.37
2023-02-08T16:16:07.229Z,11.23
2023-02-08T16:18:46.067Z,11.70
2023-02-08T16:21:27.147Z,10.73
2023-02-08T16:23:56.669Z,10.67
2023-02-08T16:26:28.202Z,10.87
2023-02-08T16:29:00.749Z,10.40
2023-02-08T16:31:30.909Z,10.73
2023-02-08T16:34:13.054Z,11.13
2023-02-08T16:36:41.462Z,10.83
2023-02-08T16:39:13.842Z,12.70
2023-02-08T16:42:16.122Z,12.27
2023-02-08T16:44:59.183Z,11.67
2023-02-08T16:47:29.946Z,11.73
2023-02-08T16:49:56.507Z,11.37
2023-02-08T16:52:23.021Z,11.17
2023-02-08T16:54:49.539Z,10.67
2023-02-08T16:57:16.279Z,10.87
2023-02-08T16:59:42.894Z,10.90
2023-02-08T17:02:13.414Z,10.30
2023-02-08T17:04:40.372Z,11.00
2023-02-08T17:07:13.340Z,10.80
2023-02-08T17:09:42.252Z,11.07
2023-02-08T17:12:21.773Z,11.23
2023-02-08T17:14:48.625Z,11.13
2023-02-08T17:17:15.400Z,11.10
2023-02-08T17:19:44.409Z,11.40
2023-02-08T17:22:10.964Z,12.30
2023-02-08T17:24:39.214Z,12.47
2023-02-08T17:27:06.007Z,14.73
2023-02-08T17:29:32.599Z,13.53
2023-02-08T17:31:59.373Z,13.40
2023-02-08T17:34:25.889Z,12.97
2023-02-08T17:36:52.557Z,12.13
2023-02-08T17:39:19.192Z,12.70
2023-02-08T17:41:45.708Z,12.37
2023-02-08T17:44:15.207Z,12.57
2023-02-08T17:46:42.502Z,12.63
2023-02-08T17:49:09.109Z,11.77
2023-02-08T17:51:35.602Z,12.63
2023-02-08T17:54:05.422Z,14.27
2023-02-08T17:56:35.364Z,13.63
2023-02-08T17:59:04.240Z,13.43
2023-02-08T18:01:31.381Z,14.13
2023-02-08T18:03:59.428Z,13.20
2023-02-08T18:06:26.105Z,13.97
2023-02-08T18:08:54.599Z,14.10
2023-02-08T18:11:21.171Z,14.77
2023-02-08T18:13:49.328Z,14.97
2023-02-08T18:16:21.300Z,16.13
2023-02-08T18:18:47.963Z,17.20
2023-02-08T18:21:17.441Z,18.40
2023-02-08T18:23:44.456Z,16.10
2023-02-08T18:26:17.020Z,17.00
2023-02-08T18:28:44.794Z,17.57
2023-02-08T18:31:14.850Z,20.00
2023-02-08T18:33:42.828Z,17.77
2023-02-08T18:36:11.801Z,18.87
2023-02-08T18:38:45.569Z,18.87
2023-02-08T18:41:18.786Z,18.57
2023-02-08T18:43:45.792Z,19.53
2023-02-08T18:46:14.552Z,19.70
2023-02-08T18:48:41.595Z,19.07
2023-02-08T18:51:09.491Z,20.17
2023-02-08T18:53:38.994Z,19.50
2023-02-08T18:56:07.343Z,19.10
2023-02-08T18:58:34.591Z,18.43
2023-02-08T19:01:15.677Z,18.93
2023-02-08T19:03:43.149Z,19.63
2023-02-08T19:06:22.770Z,19.27
2023-02-08T19:08:51.613Z,20.53
2023-02-08T19:11:25.277Z,18.80
2023-02-08T19:13:52.491Z,19.03
2023-02-08T19:16:22.056Z,19.00
2023-02-08T19:18:49.202Z,19.57
2023-02-08T19:21:17.484Z,19.87
2023-02-08T19:23:48.216Z,21.40
2023-02-08T19:26:18.205Z,20.57
2023-02-08T19:28:44.683Z,20.73
2023-02-08T19:31:13.810Z,19.73
2023-02-08T19:33:42.239Z,20.00
2023-02-08T19:36:11.810Z,19.90
2023-02-08T19:38:38.427Z,18.77
2023-02-08T19:41:06.697Z,21.27
2023-02-08T19:43:33.757Z,18.40
2023-02-08T19:46:00.474Z,20.00
2023-02-08T19:48:27.164Z,18.20
2023-02-08T19:50:58.647Z,18.97
2023-02-08T19:53:25.874Z,19.00
2023-02-08T19:56:06.769Z,19.93
2023-02-08T19:58:34.447Z,18.97
2023-02-08T20:01:06.236Z,18.30
2023-02-08T20:03:32.766Z,19.57
2023-02-08T20:05:59.221Z,18.90
2023-02-08T20:08:27.384Z,18.83
2023-02-08T20:10:54.833Z,20.00
2023-02-08T20:13:21.804Z,21.87
2023-02-08T20:15:48.527Z,21.77
2023-02-08T20:18:16.297Z,21.30
2023-02-08T20:20:43.553Z,21.97
2023-02-08T20:23:21.761Z,23.73
2023-02-08T20:25:48.897Z,23.77
2023-02-08T20:28:15.501Z,22.83
2023-02-08T20:30:42.235Z,23.80
2023-02-08T20:33:08.786Z,24.63
2023-02-08T20:35:36.470Z,25.63
2023-02-08T20:38:03.221Z,25.27
2023-02-08T20:40:29.885Z,24.10
2023-02-08T20:42:56.414Z,24.57
2023-02-08T20:45:23.050Z,24.47
2023-02-08T20:47:49.562Z,25.10
2023-02-08T20:50:19.640Z,26.03
2023-02-08T20:52:47.289Z,25.23
2023-02-08T20:55:13.796Z,27.10
2023-02-08T20:57:40.593Z,27.33
2023-02-08T21:00:07.569Z,27.50
2023-02-08T21:02:34.167Z,27.87
2023-02-08T21:05:00.700Z,29.10
2023-02-08T21:07:27.235Z,30.10
2023-02-08T21:09:53.791Z,32.03
2023-02-08T21:12:20.325Z,30.37
2023-02-08T21:14:46.776Z,30.90
2023-02-08T21:17:13.246Z,32.07
2023-02-08T21:19:39.691Z,31.60
2023-02-08T21:22:06.367Z,32.10
2023-02-08T21:24:32.926Z,32.47
2023-02-08T21:26:59.721Z,30.03
2023-02-08T21:29:26.386Z,30.13
2023-02-08T21:31:54.404Z,30.30
2023-02-08T21:34:21.450Z,28.47
2023-02-08T21:36:48.246Z,27.47
2023-02-08T21:39:14.689Z,27.23
2023-02-08T21:41:41.166Z,27.60
2023-02-08T21:44:09.163Z,27.47
2023-02-08T21:46:35.889Z,26.93
2023-02-08T21:49:21.370Z,28.27
2023-02-08T21:52:06.348Z,27.13
2023-02-08T21:54:44.633Z,30.23
2023-02-08T21:57:18.945Z,27.93
2023-02-08T21:59:47.532Z,28.80
2023-02-08T22:02:16.786Z,28.73
2023-02-08T22:04:46.599Z,29.53
2023-02-08T22:07:13.728Z,30.10
2023-02-08T22:09:41.646Z,29.50
2023-02-08T22:12:14.502Z,29.87
2023-02-08T22:14:41.047Z,29.80
2023-02-08T22:17:07.543Z,29.97
2023-02-08T22:19:34.047Z,29.70
2023-02-08T22:22:02.232Z,31.57
2023-02-08T22:24:28.698Z,29.70
2023-02-08T22:26:55.707Z,28.70
2023-02-08T22:29:22.987Z,28.93
2023-02-08T22:31:49.610Z,28.87
2023-02-08T22:34:16.217Z,28.90
2023-02-08T22:36:42.676Z,29.53
2023-02-08T22:39:09.185Z,30.50
2023-02-08T22:41:35.941Z,27.80
2023-02-08T22:44:02.429Z,28.53
2023-02-08T22:46:29.099Z,27.93
2023-02-08T22:48:55.793Z,28.77
2023-02-08T22:51:23.557Z,27.67
2023-02-08T22:53:50.182Z,27.07
2023-02-08T22:56:18.175Z,29.40
2023-02-08T22:58:44.605Z,26.53
2023-02-08T23:01:15.718Z,29.10
2023-02-08T23:03:43.033Z,28.60
2023-02-08T23:06:10.874Z,27.33
2023-02-08T23:08:37.512Z,28.93
2023-02-08T23:11:05.844Z,28.67
2023-02-08T23:13:33.015Z,28.83
2023-02-08T23:15:59.679Z,30.57
2023-02-08T23:18:26.290Z,30.23
2023-02-08T23:20:54.439Z,31.30
2023-02-08T23:23:21.080Z,30.17
2023-02-08T23:25:47.914Z,30.43
2023-02-08T23:28:14.521Z,31.43
2023-02-08T23:30:42.411Z,29.93
2023-02-08T23:33:09.057Z,32.17
2023-02-08T23:35:35.556Z,31.27
2023-02-08T23:38:02.204Z,31.37
2023-02-08T23:40:28.755Z,30.30
2023-02-08T23:42:55.274Z,31.33
2023-02-08T23:45:22.734Z,32.53
2023-02-08T23:47:49.274Z,30.90
2023-02-08T23:50:15.818Z,31.23
2023-02-08T23:52:42.567Z,30.90
2023-02-08T23:55:09.346Z,31.17
2023-02-08T23:57:37.290Z,33.03
